Time;durP1;ratioP1;P1;durP2;ratioP2;P2;SDS_P1;SDS_P2;PMS_P1;PMS_P2;Temp;Humidity;BMP_temperature;BMP_pressure;BME280_temperature;BME280_humidity;BME280_pressure;Samples;Min_cycle;Max_cycle;Signal;HPM_P1;HPM_P2
2022/08/18 00:01:49;;;;;;;12.00;10.75;;;;;;;20.43;100.00;100375.28;4994357;28;20045;-77
2022/08/18 00:04:18;;;;;;;12.68;11.38;;;;;;;20.40;100.00;100364.78;5015205;28;20502;-76
2022/08/18 00:07:01;;;;;;;12.00;10.80;;;;;;;20.39;100.00;100366.59;4985709;28;20045;-76
2022/08/18 00:09:28;;;;;;;11.65;10.52;;;;;;;20.33;100.00;100366.13;4964312;28;20049;-77
2022/08/18 00:12:00;;;;;;;11.98;10.23;;;;;;;20.30;100.00;100359.16;4990554;28;20077;-77
2022/08/18 00:14:27;;;;;;;12.35;11.15;;;;;;;20.25;100.00;100355.91;4988508;28;20052;-76
2022/08/18 00:16:54;;;;;;;10.80;9.77;;;;;;;20.18;100.00;100354.63;5010268;22;21765;-78
2022/08/18 00:19:22;;;;;;;12.07;10.85;;;;;;;20.15;100.00;100350.28;5042702;28;20035;-78
2022/08/18 00:22:11;;;;;;;11.98;10.77;;;;;;;20.11;100.00;100356.81;5010093;28;20417;-79
2022/08/18 00:24:44;;;;;;;13.43;11.70;;;;;;;20.15;100.00;100363.69;5023436;28;20125;-78
2022/08/18 00:27:20;;;;;;;12.23;11.02;;;;;;;20.09;100.00;100373.94;5003694;28;20133;-78
2022/08/18 00:29:50;;;;;;;12.75;11.23;;;;;;;20.03;100.00;100367.19;5023356;28;20036;-77
2022/08/18 00:32:21;;;;;;;12.50;11.30;;;;;;;20.01;100.00;100373.59;5010071;28;20045;-77
2022/08/18 00:34:47;;;;;;;11.80;10.55;;;;;;;19.97;100.00;100367.56;5006364;28;20440;-78
2022/08/18 00:37:15;;;;;;;12.02;10.73;;;;;;;19.98;100.00;100366.59;5027108;28;20073;-78
2022/08/18 00:39:42;;;;;;;12.20;11.00;;;;;;;19.94;100.00;100365.09;5030224;28;20044;-79
2022/08/18 00:42:20;;;;;;;12.52;11.02;;;;;;;19.89;100.00;100362.69;5024037;28;20064;-79
2022/08/18 00:45:01;;;;;;;12.15;10.82;;;;;;;19.87;100.00;100364.63;5033885;28;20052;-79
2022/08/18 00:47:29;;;;;;;13.48;11.38;;;;;;;19.85;100.00;100363.88;5032944;28;20109;-79
2022/08/18 00:50:11;;;;;;;11.50;10.40;;;;;;;19.82;100.00;100355.13;5019669;28;20049;-78
2022/08/18 00:52:45;;;;;;;11.65;10.50;;;;;;;19.81;100.00;100358.78;5014501;28;20505;-79
2022/08/18 00:55:12;;;;;;;12.85;11.55;;;;;;;19.79;100.00;100355.34;5031605;28;20041;-80
2022/08/18 00:57:41;;;;;;;11.70;10.55;;;;;;;19.79;100.00;100355.34;5041672;28;20085;-79
2022/08/18 01:00:11;;;;;;;12.82;11.52;;;;;;;19.77;100.00;100350.09;5011107;28;20048;-80
2022/08/18 01:02:45;;;;;;;14.18;10.88;;;;;;;19.78;100.00;100351.81;5026611;28;20425;-79
2022/08/18 01:05:20;;;;;;;12.85;11.25;;;;;;;19.77;100.00;100349.22;5005552;28;20087;-79
2022/08/18 01:07:48;;;;;;;12.57;11.25;;;;;;;19.75;100.00;100346.63;5012401;28;20490;-79
2022/08/18 01:10:18;;;;;;;12.70;11.40;;;;;;;19.75;100.00;100348.44;5000495;28;20186;-79
2022/08/18 01:12:50;;;;;;;13.15;11.60;;;;;;;19.69;100.00;100347.03;5010070;28;20037;-80
2022/08/18 01:15:18;;;;;;;13.07;11.48;;;;;;;19.67;100.00;100338.19;4994114;28;20100;-78
2022/08/18 01:24:03;;;;;;;12.80;11.57;;;;;;;19.58;100.00;100336.97;5011423;28;20548;-79
2022/08/18 01:26:31;;;;;;;13.40;11.85;;;;;;;19.54;100.00;100339.91;4990782;28;20486;-78
2022/08/18 01:29:04;;;;;;;12.65;11.35;;;;;;;19.51;100.00;100338.28;5024103;28;20038;-79
2022/08/18 01:31:37;;;;;;;13.48;12.07;;;;;;;19.50;100.00;100335.69;5025275;28;20041;-79
2022/08/18 01:34:09;;;;;;;13.38;11.52;;;;;;;19.57;100.00;100337.91;5049750;28;20044;-78
2022/08/18 01:36:37;;;;;;;13.57;12.18;;;;;;;19.57;100.00;100334.38;5024682;28;20044;-78
2022/08/18 01:39:06;;;;;;;12.43;11.07;;;;;;;19.56;100.00;100330.84;5014743;28;20040;-79
2022/08/18 01:41:33;;;;;;;13.88;11.93;;;;;;;19.57;100.00;100331.72;5010961;28;20128;-78
2022/08/18 01:44:01;;;;;;;13.70;12.38;;;;;;;19.52;100.00;100331.97;5028165;28;20443;-79
2022/08/18 01:46:30;;;;;;;14.75;13.20;;;;;;;19.52;100.00;100326.63;5018053;28;20049;-78
2022/08/18 01:48:59;;;;;;;13.68;12.27;;;;;;;19.46;100.00;100316.28;5013797;28;20037;-79
2022/08/18 01:51:28;;;;;;;12.00;10.75;;;;;;;19.40;100.00;100319.34;4991335;28;20637;-78
2022/08/18 01:54:11;;;;;;;14.00;12.25;;;;;;;19.36;100.00;100317.81;5030353;28;20124;-79
2022/08/18 01:56:39;;;;;;;13.52;12.13;;;;;;;19.35;100.00;100311.59;5027637;28;20041;-78
2022/08/18 01:59:09;;;;;;;13.25;11.95;;;;;;;19.32;100.00;100302.88;5027499;28;20061;-79
2022/08/18 02:01:38;;;;;;;13.57;12.18;;;;;;;19.25;100.00;100310.44;5015777;28;20128;-80
2022/08/18 02:04:16;;;;;;;12.90;11.70;;;;;;;19.18;100.00;100303.75;5010641;28;20048;-79
2022/08/18 02:07:01;;;;;;;12.98;11.57;;;;;;;19.12;100.00;100301.44;5011232;28;20049;-78
2022/08/18 02:09:29;;;;;;;12.85;11.55;;;;;;;19.07;100.00;100300.84;5030058;28;20026;-79
2022/08/18 02:11:56;;;;;;;15.02;12.55;;;;;;;19.05;100.00;100300.09;5028474;28;20092;-79
2022/08/18 02:14:23;;;;;;;13.77;12.38;;;;;;;19.03;100.00;100299.34;5032425;28;20146;-78
2022/08/18 02:16:56;;;;;;;13.80;12.30;;;;;;;19.02;100.00;100298.47;5029078;28;20144;-78
2022/08/18 02:19:37;;;;;;;12.93;11.63;;;;;;;18.99;100.00;100301.31;5031764;28;20037;-79
2022/08/18 02:22:05;;;;;;;13.68;12.27;;;;;;;18.94;100.00;100299.91;5016314;28;20037;-79
2022/08/18 02:24:31;;;;;;;14.55;12.90;;;;;;;18.92;100.00;100296.44;5027177;28;20045;-79
2022/08/18 02:26:58;;;;;;;13.63;12.25;;;;;;;18.85;100.00;100298.63;5030035;28;20046;-79
2022/08/18 02:29:25;;;;;;;14.25;12.75;;;;;;;18.81;100.00;100299.75;5029318;28;20045;-78
2022/08/18 02:31:52;;;;;;;13.52;12.18;;;;;;;18.79;100.00;100286.47;5022672;28;20037;-78
2022/08/18 02:34:18;;;;;;;14.52;13.02;;;;;;;18.81;100.00;100283.69;4997516;28;20045;-79
2022/08/18 02:36:45;;;;;;;14.98;13.48;;;;;;;18.82;100.00;100275.56;5007031;28;20100;-78
2022/08/18 02:39:12;;;;;;;14.93;13.43;;;;;;;18.76;100.00;100275.13;5013196;28;20080;-79
2022/08/18 02:41:38;;;;;;;14.50;13.00;;;;;;;18.68;100.00;100274.72;5006884;28;20100;-77
2022/08/18 02:44:06;;;;;;;16.88;14.15;;;;;;;18.64;100.00;100275.81;5025548;28;20037;-78
2022/08/18 02:46:34;;;;;;;14.35;12.88;;;;;;;18.59;100.00;100273.41;5011234;28;20103;-79
2022/08/18 02:49:01;;;;;;;13.57;11.90;;;;;;;18.57;100.00;100277.97;5010166;28;20419;-78
2022/08/18 02:51:28;;;;;;;15.55;13.13;;;;;;;18.53;100.00;100273.78;4995514;28;20049;-78
2022/08/18 02:53:58;;;;;;;15.85;13.88;;;;;;;18.51;100.00;100273.88;5022759;28;20978;-78
2022/08/18 02:56:28;;;;;;;15.13;13.52;;;;;;;18.48;100.00;100279.38;5010369;28;20168;-78
2022/08/18 02:59:13;;;;;;;15.07;13.52;;;;;;;18.39;100.00;100285.28;5029334;28;20053;-78
2022/08/18 03:01:44;;;;;;;15.75;13.85;;;;;;;18.33;100.00;100287.44;5031407;28;20041;-78
2022/08/18 03:04:15;;;;;;;15.00;13.40;;;;;;;18.29;100.00;100287.63;5012181;28;20068;-78
2022/08/18 03:06:42;;;;;;;16.17;14.48;;;;;;;18.25;100.00;100286.09;5026771;28;20052;-78
2022/08/18 03:09:13;;;;;;;16.17;14.00;;;;;;;18.22;100.00;100293.41;5014999;28;20038;-78
2022/08/18 03:11:40;;;;;;;15.77;14.13;;;;;;;18.17;100.00;100295.53;5014267;28;20414;-78
2022/08/18 03:14:09;;;;;;;16.60;14.88;;;;;;;18.16;100.00;100300.00;5029305;28;20048;-78
2022/08/18 03:16:42;;;;;;;16.67;14.98;;;;;;;18.14;100.00;100304.56;5028356;28;20445;-78
2022/08/18 03:19:21;;;;;;;17.65;15.88;;;;;;;18.13;100.00;100302.84;5037271;28;20037;-78
2022/08/18 03:21:48;;;;;;;17.02;15.30;;;;;;;18.10;100.00;100305.69;5019157;28;20041;-77
2022/08/18 03:24:16;;;;;;;17.00;13.93;;;;;;;18.12;100.00;100310.94;5021442;28;20494;-77
2022/08/18 03:26:50;;;;;;;16.52;14.60;;;;;;;18.09;100.00;100309.31;5018958;28;20041;-78
2022/08/18 03:29:18;;;;;;;16.88;14.73;;;;;;;18.07;100.00;100319.22;5020054;28;20104;-79
2022/08/18 03:31:47;;;;;;;17.08;14.57;;;;;;;18.03;100.00;100316.81;5032274;28;20047;-78
2022/08/18 03:34:14;;;;;;;17.20;15.02;;;;;;;17.97;100.00;100324.22;5015895;28;21000;-79
2022/08/18 03:36:41;;;;;;;17.02;14.73;;;;;;;17.94;100.00;100313.72;5031016;28;20060;-77
2022/08/18 03:39:10;;;;;;;16.67;14.95;;;;;;;17.93;100.00;100320.03;5035894;28;20047;-80
2022/08/18 03:41:42;;;;;;;17.75;14.65;;;;;;;17.85;100.00;100319.59;5016457;28;20043;-77
2022/08/18 03:44:31;;;;;;;17.90;15.15;;;;;;;17.96;100.00;100316.31;5026377;28;20033;-78
2022/08/18 03:46:59;;;;;;;16.95;15.23;;;;;;;17.93;100.00;100312.00;5029822;28;20036;-79
2022/08/18 03:49:26;;;;;;;16.52;14.82;;;;;;;17.87;100.00;100317.69;5032479;28;20034;-79
2022/08/18 03:51:53;;;;;;;16.55;14.73;;;;;;;17.84;100.00;100322.34;5019106;28;20132;-79
2022/08/18 03:54:20;;;;;;;19.65;15.50;;;;;;;17.86;100.00;100326.66;5030458;28;20044;-79
2022/08/18 03:56:48;;;;;;;19.02;14.80;;;;;;;17.84;100.00;100320.53;5021541;28;20048;-79
2022/08/18 03:59:18;;;;;;;16.17;14.48;;;;;;;17.82;100.00;100327.75;5035566;28;20076;-78
2022/08/18 04:01:47;;;;;;;16.92;14.73;;;;;;;17.80;100.00;100326.97;5011364;28;20064;-80
2022/08/18 04:04:18;;;;;;;16.67;13.80;;;;;;;17.83;100.00;100334.84;5010489;28;20046;-80
2022/08/18 04:06:50;;;;;;;16.17;13.45;;;;;;;17.81;100.00;100336.72;5018151;28;20407;-79
2022/08/18 04:09:18;;;;;;;16.88;15.05;;;;;;;17.85;100.00;100334.75;5031605;28;20042;-78
2022/08/18 04:11:45;;;;;;;16.42;14.73;;;;;;;17.86;100.00;100329.31;5017301;28;20498;-78
2022/08/18 04:14:17;;;;;;;16.70;14.88;;;;;;;17.89;100.00;100330.94;5009327;28;20040;-78
2022/08/18 04:16:45;;;;;;;14.80;13.30;;;;;;;17.85;100.00;100340.09;5029151;28;20048;-79
2022/08/18 04:19:12;;;;;;;16.27;14.57;;;;;;;17.86;100.00;100341.81;5010489;28;20046;-80
2022/08/18 04:21:52;;;;;;;19.77;15.50;;;;;;;17.87;100.00;100339.06;5031400;28;20042;-80
2022/08/18 04:24:19;;;;;;;17.60;15.43;;;;;;;17.97;100.00;100332.25;5021618;28;20051;-79
2022/08/18 04:26:46;;;;;;;19.15;15.23;;;;;;;18.01;100.00;100335.63;5007369;28;20053;-78
2022/08/18 04:29:16;;;;;;;17.25;13.93;;;;;;;18.05;100.00;100339.84;5037073;28;20037;-78
2022/08/18 04:31:43;;;;;;;17.65;14.13;;;;;;;18.08;100.00;100345.03;5033684;28;20033;-79
2022/08/18 04:34:11;;;;;;;18.40;15.82;;;;;;;18.12;100.00;100329.66;5029491;28;20050;-78
2022/08/18 04:36:39;;;;;;;16.55;14.30;;;;;;;18.22;100.00;100331.72;5015272;28;20409;-78
2022/08/18 04:39:08;;;;;;;15.75;14.07;;;;;;;18.28;100.00;100335.88;5031207;28;20033;-79
2022/08/18 04:41:36;;;;;;;15.32;13.82;;;;;;;18.31;100.00;100333.00;5010271;28;20045;-79
2022/08/18 04:44:06;;;;;;;16.58;14.35;;;;;;;18.40;100.00;100337.81;5011854;28;20059;-78
2022/08/18 04:46:41;;;;;;;18.15;15.63;;;;;;;18.51;100.00;100346.09;5010619;28;20047;-78
2022/08/18 04:49:09;;;;;;;16.50;14.75;;;;;;;18.55;100.00;100341.41;5015764;28;20056;-79
2022/08/18 04:51:43;;;;;;;16.42;14.13;;;;;;;18.62;100.00;100342.78;5011454;28;20109;-78
2022/08/18 04:54:35;;;;;;;15.65;13.90;;;;;;;18.69;100.00;100343.31;5023463;28;20737;-79
2022/08/18 04:57:09;;;;;;;15.23;13.55;;;;;;;18.73;100.00;100351.06;4996930;28;20037;-78
2022/08/18 04:59:36;;;;;;;16.67;13.38;;;;;;;18.83;100.00;100348.69;5030040;28;20045;-78
2022/08/18 05:02:06;;;;;;;15.90;14.02;;;;;;;18.94;100.00;100345.41;4988343;28;20479;-78
2022/08/18 05:04:39;;;;;;;15.68;13.80;;;;;;;19.01;100.00;100352.13;5013041;28;20100;-78
2022/08/18 05:07:09;;;;;;;14.07;12.55;;;;;;;19.10;100.00;100351.56;5022958;28;20584;-79
2022/08/18 05:09:37;;;;;;;16.40;13.77;;;;;;;19.24;100.00;100348.88;5025183;28;20505;-78
2022/08/18 05:12:08;;;;;;;15.80;14.18;;;;;;;19.42;100.00;100354.91;5024101;28;20399;-79
2022/08/18 05:14:35;;;;;;;15.82;14.30;;;;;;;19.57;100.00;100353.16;5017612;28;20060;-79
2022/08/18 05:17:02;;;;;;;14.15;12.75;;;;;;;19.62;100.00;100348.38;4996273;28;20065;-80
2022/08/18 05:19:30;;;;;;;14.85;13.25;;;;;;;19.64;100.00;100349.13;4996981;28;20124;-79
2022/08/18 05:21:57;;;;;;;15.43;12.68;;;;;;;19.73;100.00;100353.03;5029292;28;20056;-77
2022/08/18 05:24:27;;;;;;;14.95;13.45;;;;;;;19.86;100.00;100345.97;5011667;28;20048;-79
2022/08/18 05:27:03;;;;;;;13.48;12.13;;;;;;;19.96;100.00;100350.63;5000101;28;20042;-80
2022/08/18 05:29:35;;;;;;;13.35;12.05;;;;;;;20.09;100.00;100349.81;4999137;28;20038;-79
2022/08/18 05:32:07;;;;;;;14.50;12.98;;;;;;;20.42;100.00;100352.13;5024098;28;20041;-80
2022/08/18 05:34:34;;;;;;;13.85;12.10;;;;;;;20.50;100.00;100355.19;5026998;28;20506;-79
2022/08/18 05:37:11;;;;;;;14.05;12.55;;;;;;;20.66;100.00;100360.38;5008393;28;20052;-79
2022/08/18 05:39:49;;;;;;;15.63;13.43;;;;;;;20.72;100.00;100358.16;5029556;28;20053;-79
2022/08/18 05:42:19;;;;;;;14.20;12.73;;;;;;;20.86;100.00;100364.44;5031167;28;20072;-80
2022/08/18 05:44:48;;;;;;;13.27;11.98;;;;;;;21.09;100.00;100364.56;5017133;28;20041;-77
2022/08/18 05:47:28;;;;;;;14.20;12.80;;;;;;;21.32;100.00;100371.06;4999475;28;20692;-79
2022/08/18 05:49:57;;;;;;;14.10;12.70;;;;;;;21.51;100.00;100376.00;5023001;28;20038;-78
2022/08/18 05:52:23;;;;;;;12.85;11.52;;;;;;;21.69;100.00;100365.78;5054072;28;20034;-80
2022/08/18 05:57:50;;;;;;;14.75;12.90;;;;;;;22.04;100.00;100370.47;5041431;28;20041;-80
2022/08/18 06:00:18;;;;;;;13.98;12.57;;;;;;;22.03;100.00;100380.38;5047678;28;20124;-79
2022/08/18 06:03:04;;;;;;;12.88;11.68;;;;;;;22.15;100.00;100378.63;5007256;28;20041;-78
2022/08/18 06:05:35;;;;;;;13.38;12.07;;;;;;;22.12;100.00;100377.03;5014191;28;20382;-79
2022/08/18 06:08:07;;;;;;;13.02;11.73;;;;;;;22.19;100.00;100369.34;5013276;28;20107;-80
2022/08/18 06:10:38;;;;;;;12.57;11.40;;;;;;;22.26;100.00;100373.31;5007275;28;20045;-79
2022/08/18 06:13:08;;;;;;;12.88;11.63;;;;;;;22.31;100.00;100364.91;5022699;28;20096;-79
2022/08/18 06:15:34;;;;;;;13.23;12.00;;;;;;;22.45;100.00;100364.75;5039174;28;20037;-79
2022/08/18 06:18:13;;;;;;;13.70;12.43;;;;;;;22.55;100.00;100370.31;5020678;28;20056;-79
2022/08/18 07:04:25;;;;;;;12.63;11.35;;;;;;;27.29;61.97;100356.13;5102729;28;20101;-95
2022/08/18 07:06:51;;;;;;;17.45;12.05;;;;;;;27.07;64.08;100357.28;5047398;28;20044;-77
2022/08/18 07:09:24;;;;;;;13.02;11.73;;;;;;;26.79;67.07;100364.41;5024087;28;20041;-77
2022/08/18 07:12:00;;;;;;;13.32;11.68;;;;;;;26.54;68.34;100365.84;5025022;28;20402;-77
2022/08/18 07:14:27;;;;;;;12.63;11.38;;;;;;;26.44;69.56;100370.41;5035003;28;20055;-77
2022/08/18 07:17:12;;;;;;;13.02;11.75;;;;;;;26.45;69.83;100371.25;5046804;28;20051;-77
2022/08/18 07:19:40;;;;;;;12.10;10.90;;;;;;;26.38;70.62;100370.94;5032550;28;20033;-77
2022/08/18 07:22:15;;;;;;;15.32;11.90;;;;;;;26.57;69.37;100381.84;5030493;28;20036;-77
2022/08/18 07:24:46;;;;;;;12.48;10.82;;;;;;;26.77;65.72;100384.53;5064669;28;20119;-77
2022/08/18 07:27:16;;;;;;;12.02;10.93;;;;;;;27.09;65.96;100381.56;5045853;28;20037;-77
2022/08/18 07:30:04;;;;;;;12.07;10.88;;;;;;;27.30;62.49;100374.09;5029366;28;20178;-77
2022/08/18 07:32:36;;;;;;;11.45;10.35;;;;;;;27.17;62.22;100379.00;5053634;28;20064;-77
2022/08/18 07:35:07;;;;;;;12.63;11.43;;;;;;;26.89;63.40;100376.09;5024428;28;20047;-78
2022/08/18 07:37:42;;;;;;;12.18;11.00;;;;;;;26.87;63.43;100379.97;5059224;28;20095;-78
2022/08/18 07:40:23;;;;;;;11.80;10.50;;;;;;;26.83;63.15;100384.84;5024008;28;20130;-78
2022/08/18 07:42:57;;;;;;;12.00;10.90;;;;;;;26.68;64.45;100386.25;5026925;28;20371;-79
2022/08/18 07:45:35;;;;;;;13.32;11.88;;;;;;;26.62;67.21;100381.38;5042446;28;20517;-79
2022/08/18 07:48:11;;;;;;;13.48;12.25;;;;;;;26.57;67.49;100381.84;5041371;28;20550;-78
2022/08/18 07:51:43;;;;;;;12.60;11.50;;;;;;;26.55;66.71;100378.38;5050774;28;20036;-79
2022/08/18 07:54:20;;;;;;;12.57;11.32;;;;;;;26.60;67.13;100375.25;5031296;28;20752;-78
2022/08/18 07:57:21;;;;;;;12.45;11.27;;;;;;;26.63;67.23;100386.66;5050727;28;20122;-78
2022/08/18 08:00:29;;;;;;;12.25;11.13;;;;;;;26.57;66.27;100389.06;5070188;28;20490;-78
2022/08/18 08:03:18;;;;;;;12.23;10.93;;;;;;;26.47;65.50;100391.78;5054989;28;20501;-78
2022/08/18 08:06:23;;;;;;;12.40;11.20;;;;;;;26.56;66.88;100387.38;5071739;28;20043;-79
2022/08/18 08:08:57;;;;;;;11.60;10.60;;;;;;;26.60;66.45;100396.94;5051755;28;20039;-78
2022/08/18 08:11:43;;;;;;;12.52;11.23;;;;;;;26.64;67.30;100391.06;5063763;28;20032;-78
2022/08/18 08:14:29;;;;;;;12.55;11.45;;;;;;;26.83;68.47;100401.09;5065334;28;20396;-79
2022/08/18 08:16:59;;;;;;;14.77;12.77;;;;;;;27.01;65.02;100392.25;5048948;28;20055;-78
2022/08/18 08:19:35;;;;;;;13.93;11.32;;;;;;;27.03;64.57;100406.50;5046945;28;20045;-79
2022/08/18 08:22:29;;;;;;;12.73;11.30;;;;;;;26.94;65.00;100413.66;5066169;28;20028;-79
2022/08/18 08:24:59;;;;;;;13.35;12.07;;;;;;;26.98;65.09;100406.94;5051267;28;20034;-79
2022/08/18 08:28:17;;;;;;;12.80;11.70;;;;;;;27.15;65.77;100398.09;5062791;28;20496;-79
2022/08/18 08:30:51;;;;;;;18.90;13.80;;;;;;;27.24;64.18;100407.22;5035484;28;20040;-78
2022/08/18 08:33:27;;;;;;;12.88;11.55;;;;;;;27.33;64.69;100409.09;5064528;28;20075;-78
2022/08/18 08:36:01;;;;;;;12.27;11.18;;;;;;;27.35;64.76;100408.94;5034523;28;20490;-78
2022/08/18 08:38:41;;;;;;;13.40;12.00;;;;;;;27.45;62.16;100412.50;5031213;28;20036;-78
2022/08/18 08:41:32;;;;;;;16.60;11.82;;;;;;;27.38;62.46;100409.50;5062388;28;20521;-78
2022/08/18 08:44:09;;;;;;;12.65;11.45;;;;;;;27.31;62.16;100407.50;5059311;28;20045;-78
2022/08/18 08:46:45;;;;;;;13.45;12.15;;;;;;;27.34;60.51;100407.25;5055857;28;20033;-79
2022/08/18 08:49:41;;;;;;;12.80;11.70;;;;;;;27.52;60.61;100412.78;5029751;28;20064;-79
2022/08/18 08:52:19;;;;;;;13.77;12.50;;;;;;;27.45;62.45;100410.63;5032653;28;20047;-78
2022/08/18 08:54:52;;;;;;;12.73;11.52;;;;;;;27.54;63.37;100418.91;5050503;28;20045;-77
2022/08/18 08:57:19;;;;;;;;;;;;;;;27.64;62.70;100412.44;5046680;28;20036;-78
2022/08/18 08:59:47;;;;;;;13.32;11.90;;;;;;;27.82;59.29;100412.53;5040217;28;19931;-78
2022/08/18 09:02:22;;;;;;;12.73;11.52;;;;;;;27.77;60.06;100410.28;5044897;28;20036;-78
2022/08/18 09:05:13;;;;;;;12.88;11.77;;;;;;;27.87;61.00;100406.69;5065273;28;20032;-78
2022/08/18 09:08:01;;;;;;;12.82;11.63;;;;;;;27.96;60.70;100405.78;5031921;28;20039;-77
2022/08/18 09:10:39;;;;;;;12.80;11.52;;;;;;;28.09;58.77;100406.31;5066097;28;20040;-79
2022/08/18 09:13:24;;;;;;;14.45;12.35;;;;;;;27.96;57.79;100408.50;5047103;28;20033;-78
2022/08/18 09:16:16;;;;;;;12.10;11.00;;;;;;;28.11;60.18;100408.88;5058908;28;20037;-78
2022/08/18 09:19:06;;;;;;;12.65;11.45;;;;;;;28.19;57.84;100403.53;5067693;28;20040;-78
2022/08/18 09:21:59;;;;;;;12.18;10.98;;;;;;;28.21;59.24;100398.81;5045352;28;20060;-79
2022/08/18 09:24:37;;;;;;;13.02;11.82;;;;;;;28.10;57.08;100397.16;5043742;28;20044;-78
2022/08/18 09:27:25;;;;;;;12.68;11.50;;;;;;;28.28;57.77;100387.19;5046079;28;20041;-79
2022/08/18 09:29:58;;;;;;;12.18;11.07;;;;;;;28.34;57.07;100384.91;5045339;28;20051;-78
2022/08/18 09:32:25;;;;;;;12.63;11.57;;;;;;;28.31;56.28;100384.19;5028066;28;20063;-79
2022/08/18 09:35:20;;;;;;;12.80;11.60;;;;;;;28.22;56.20;100381.50;5048255;28;20520;-78
2022/08/18 09:44:11;;;;;;;13.02;11.93;;;;;;;28.63;56.51;100366.53;5035744;28;20489;-78
2022/08/18 09:46:54;;;;;;;11.75;10.65;;;;;;;28.76;56.80;100358.84;5053095;28;20111;-77
2022/08/18 09:49:21;;;;;;;11.68;10.50;;;;;;;28.83;56.06;100359.91;5046998;28;20405;-78
2022/08/18 09:51:49;;;;;;;12.88;11.25;;;;;;;29.03;54.50;100357.91;5047296;28;20052;-77
2022/08/18 09:54:19;;;;;;;11.43;10.43;;;;;;;29.14;52.78;100360.38;5033817;28;20070;-77
2022/08/18 09:56:50;;;;;;;12.68;11.30;;;;;;;29.17;54.14;100357.31;5050864;28;20611;-78
2022/08/18 09:59:33;;;;;;;12.45;11.00;;;;;;;29.26;50.83;100354.66;5044740;28;20603;-77
2022/08/18 10:02:05;;;;;;;12.30;10.90;;;;;;;29.47;51.00;100359.75;5052786;28;20108;-77
2022/08/18 10:04:50;;;;;;;10.43;9.30;;;;;;;29.59;50.88;100340.28;5033000;28;20044;-78
2022/08/18 10:07:18;;;;;;;11.75;10.65;;;;;;;29.88;50.45;100341.78;5063205;28;20040;-78
2022/08/18 10:09:56;;;;;;;39.97;13.30;;;;;;;30.24;50.21;100335.13;5036724;28;20131;-78
2022/08/18 10:13:01;;;;;;;10.50;9.45;;;;;;;30.59;48.23;100338.59;5036598;28;20037;-77
2022/08/18 10:15:56;;;;;;;9.38;8.48;;;;;;;30.94;46.99;100326.56;5067114;28;20041;-78
2022/08/18 10:18:38;;;;;;;10.52;9.63;;;;;;;31.35;45.12;100330.09;5043576;28;20420;-77
2022/08/18 10:21:20;;;;;;;10.07;8.18;;;;;;;31.53;41.49;100329.03;5044304;28;20025;-78
2022/08/18 10:23:52;;;;;;;10.73;9.73;;;;;;;31.59;41.89;100328.34;5048149;28;20397;-77
2022/08/18 10:26:42;;;;;;;10.05;9.05;;;;;;;31.38;43.30;100321.59;5041761;28;20141;-77
2022/08/18 10:29:29;;;;;;;9.20;8.32;;;;;;;31.88;42.84;100327.78;5047102;28;20041;-77
2022/08/18 10:31:55;;;;;;;9.23;8.45;;;;;;;32.22;42.28;100330.16;5069399;28;20286;-77
2022/08/18 10:34:44;;;;;;;9.98;8.18;;;;;;;32.26;41.31;100322.44;5054376;28;20037;-77
2022/08/18 10:37:46;;;;;;;10.98;9.95;;;;;;;32.39;42.97;100320.00;5034854;28;20040;-77
2022/08/18 10:40:19;;;;;;;10.93;9.40;;;;;;;32.69;40.92;100320.97;5045707;28;20080;-77
2022/08/18 10:43:11;;;;;;;8.93;8.13;;;;;;;32.61;42.13;100316.41;5046023;28;20099;-77
2022/08/18 10:45:58;;;;;;;9.73;8.82;;;;;;;32.38;40.62;100326.50;5066216;28;20078;-78
2022/08/18 10:49:01;;;;;;;9.52;8.63;;;;;;;31.45;40.06;100315.41;5054666;28;20045;-78
2022/08/18 10:51:44;;;;;;;8.77;8.07;;;;;;;31.42;43.15;100313.03;5048707;28;20104;-77
2022/08/18 10:54:42;;;;;;;10.32;9.32;;;;;;;31.58;44.04;100315.72;5052384;28;20041;-77
2022/08/18 10:57:23;;;;;;;9.60;8.70;;;;;;;31.66;43.08;100316.53;5048095;28;20043;-77
2022/08/18 11:00:00;;;;;;;10.00;9.10;;;;;;;31.63;42.42;100316.06;5047307;28;20482;-77
2022/08/18 11:02:52;;;;;;;9.85;8.85;;;;;;;31.44;43.00;100321.91;5051220;28;20401;-78
2022/08/18 11:05:28;;;;;;;9.85;9.05;;;;;;;31.60;43.16;100321.84;5046249;28;20132;-78
2022/08/18 11:08:02;;;;;;;10.25;9.25;;;;;;;32.15;42.92;100331.91;5031092;28;20611;-78
2022/08/18 11:10:47;;;;;;;9.75;8.88;;;;;;;32.61;41.72;100323.75;5053416;28;20036;-79
2022/08/18 11:13:45;;;;;;;9.60;8.77;;;;;;;32.96;40.74;100325.03;5044807;28;20118;-78
2022/08/18 11:16:43;;;;;;;10.10;9.20;;;;;;;33.44;39.87;100325.63;5057276;28;20486;-77
2022/08/18 11:19:13;;;;;;;9.82;9.00;;;;;;;33.29;38.88;100314.63;5069646;28;20127;-78
2022/08/18 11:21:44;;;;;;;9.53;8.57;;;;;;;33.59;38.65;100315.53;5032072;28;20059;-78
2022/08/18 11:24:25;;;;;;;12.40;8.48;;;;;;;33.64;38.28;100310.34;5035240;28;20127;-78
2022/08/18 11:26:56;;;;;;;9.15;8.25;;;;;;;33.69;37.14;100307.88;5041963;28;20091;-78
2022/08/18 11:29:24;;;;;;;10.52;8.90;;;;;;;33.54;36.56;100313.34;5033939;28;21345;-78
2022/08/18 11:32:04;;;;;;;10.38;9.48;;;;;;;33.54;36.86;100309.75;5049070;28;20095;-78
2022/08/18 11:34:37;;;;;;;8.68;7.97;;;;;;;33.40;36.64;100314.22;5050152;28;20048;-77
2022/08/18 11:37:18;;;;;;;9.75;8.85;;;;;;;33.40;37.87;100308.75;5033981;28;20099;-78
2022/08/18 11:39:49;;;;;;;9.75;8.85;;;;;;;33.35;38.22;100313.88;5036101;28;20090;-78
2022/08/18 11:42:17;;;;;;;9.18;8.27;;;;;;;33.36;40.01;100312.00;5031199;28;20040;-78
2022/08/18 11:44:54;;;;;;;9.70;8.90;;;;;;;33.65;37.99;100311.19;5034246;28;21532;-78
2022/08/18 11:47:21;;;;;;;8.65;7.85;;;;;;;33.80;36.98;100301.06;5051310;28;20032;-78
2022/08/18 11:50:11;;;;;;;8.55;7.78;;;;;;;33.62;37.07;100295.13;5050164;28;20040;-78
2022/08/18 11:52:50;;;;;;;8.70;8.00;;;;;;;33.49;36.58;100293.91;5019393;28;20040;-78
2022/08/18 11:55:33;;;;;;;8.48;7.72;;;;;;;33.42;35.77;100284.75;5048354;28;20032;-78
2022/08/18 11:58:01;;;;;;;8.70;7.90;;;;;;;33.22;36.10;100286.31;5050585;28;20497;-78
2022/08/18 12:00:41;;;;;;;8.45;7.68;;;;;;;33.44;35.43;100273.59;5037778;28;20059;-78
2022/08/18 12:03:18;;;;;;;8.20;7.40;;;;;;;33.52;34.00;100273.50;5066579;28;20056;-78
2022/08/18 12:06:29;;;;;;;9.68;8.13;;;;;;;33.43;36.49;100283.72;5068253;28;20029;-79
2022/08/18 12:09:14;;;;;;;10.05;7.55;;;;;;;33.33;36.06;100283.97;5049110;28;20052;-79
2022/08/18 12:12:06;;;;;;;8.80;8.00;;;;;;;33.03;37.34;100287.69;5057990;28;20131;-78
2022/08/18 12:14:56;;;;;;;8.73;7.90;;;;;;;32.97;36.41;100286.56;5039104;28;20037;-78
2022/08/18 12:17:38;;;;;;;7.72;7.03;;;;;;;32.85;37.39;100288.03;5059143;28;20099;-78
2022/08/18 12:20:07;;;;;;;8.02;7.32;;;;;;;32.93;36.35;100290.69;5080019;22;20090;-78
2022/08/18 12:22:40;;;;;;;8.25;7.55;;;;;;;33.11;35.88;100287.63;5064801;28;20488;-78
2022/08/18 12:25:11;;;;;;;8.45;7.65;;;;;;;33.20;35.09;100283.75;5063948;28;20044;-78
2022/08/18 12:27:38;;;;;;;8.38;7.68;;;;;;;33.11;35.52;100278.56;5047401;28;20124;-78
2022/08/18 12:30:06;;;;;;;9.43;8.05;;;;;;;33.08;35.86;100278.94;5082385;28;20099;-77
2022/08/18 12:32:42;;;;;;;8.38;7.63;;;;;;;33.27;36.62;100268.28;5066424;28;20040;-79
2022/08/18 12:35:28;;;;;;;8.98;8.07;;;;;;;33.81;35.65;100267.16;5051378;28;20044;-79
2022/08/18 12:37:56;;;;;;;9.48;8.57;;;;;;;34.04;34.07;100264.28;5028078;28;20051;-79
2022/08/18 12:40:38;;;;;;;8.20;7.55;;;;;;;34.20;33.84;100263.19;5034500;28;20055;-78
2022/08/18 12:43:05;;;;;;;8.32;7.63;;;;;;;34.08;35.22;100260.13;5036647;28;20088;-78
2022/08/18 12:45:33;;;;;;;8.77;7.97;;;;;;;34.36;34.02;100257.47;5048433;28;20159;-78